createdAt,value
2022-09-21T00:01:26.508Z,11.89
2022-09-21T00:05:27.061Z,11.86
2022-09-21T00:09:20.688Z,11.82
2022-09-21T00:13:14.042Z,11.80
2022-09-21T00:17:08.359Z,11.80
2022-09-21T00:21:08.057Z,11.79
2022-09-21T00:24:42.930Z,11.81
2022-09-21T00:28:09.870Z,11.86
2022-09-21T00:31:36.685Z,11.90
2022-09-21T00:35:04.482Z,11.96
2022-09-21T00:38:32.821Z,11.99
2022-09-21T00:41:59.314Z,12.03
2022-09-21T00:45:26.157Z,12.07
2022-09-21T00:48:53.061Z,12.08
2022-09-21T00:52:22.667Z,12.08
2022-09-21T00:55:53.573Z,12.07
2022-09-21T00:59:22.755Z,12.04
2022-09-21T01:02:51.577Z,12.00
2022-09-21T01:06:22.681Z,11.95
2022-09-21T01:09:51.820Z,11.86
2022-09-21T01:13:31.420Z,11.78
2022-09-21T01:17:08.619Z,11.73
2022-09-21T01:21:11.545Z,11.70
2022-09-21T01:25:01.977Z,11.69
2022-09-21T01:28:42.007Z,11.71
2022-09-21T01:32:13.427Z,11.73
2022-09-21T01:35:48.067Z,11.76
2022-09-21T01:39:18.415Z,11.79
2022-09-21T01:42:47.902Z,11.80
2022-09-21T01:46:22.047Z,11.80
2022-09-21T01:49:53.481Z,11.80
2022-09-21T01:53:25.357Z,11.78
2022-09-21T01:56:57.378Z,11.74
2022-09-21T02:00:26.374Z,11.68
2022-09-21T02:03:58.835Z,11.64
2022-09-21T02:07:27.077Z,11.58
2022-09-21T02:10:55.538Z,11.49
2022-09-21T02:14:26.572Z,11.43
2022-09-21T02:18:01.529Z,11.38
2022-09-21T02:21:33.315Z,11.30
2022-09-21T02:25:09.510Z,11.20
2022-09-21T02:28:45.100Z,11.12
2022-09-21T02:32:17.761Z,11.09
2022-09-21T02:35:52.354Z,11.09
2022-09-21T02:39:26.917Z,11.06
2022-09-21T02:42:58.485Z,11.05
2022-09-21T02:46:30.930Z,11.05
2022-09-21T02:50:04.464Z,11.02
2022-09-21T02:53:36.492Z,10.99
2022-09-21T02:57:04.881Z,10.94
2022-09-21T03:00:31.635Z,10.90
2022-09-21T03:04:01.816Z,10.88
2022-09-21T03:07:28.745Z,10.83
2022-09-21T03:10:55.912Z,10.77
2022-09-21T03:14:23.878Z,10.71
2022-09-21T03:17:50.567Z,10.66
2022-09-21T03:21:17.263Z,10.61
2022-09-21T03:24:46.791Z,10.57
2022-09-21T03:28:14.070Z,10.52
2022-09-21T03:31:41.151Z,10.47
2022-09-21T03:35:08.895Z,10.44
2022-09-21T03:38:36.642Z,10.43
2022-09-21T03:42:04.884Z,10.44
2022-09-21T03:45:34.222Z,10.46
2022-09-21T03:49:01.434Z,10.47
2022-09-21T03:52:28.281Z,10.46
2022-09-21T03:55:54.837Z,10.45
2022-09-21T03:59:21.986Z,10.41
2022-09-21T04:02:50.419Z,10.36
2022-09-21T04:06:17.325Z,10.31
2022-09-21T04:09:44.076Z,10.23
2022-09-21T04:13:11.684Z,10.16
2022-09-21T04:16:38.901Z,10.12
2022-09-21T04:20:07.318Z,10.11
2022-09-21T04:23:35.368Z,10.09
2022-09-21T04:27:02.429Z,10.12
2022-09-21T04:30:30.580Z,10.17
2022-09-21T04:34:00.768Z,10.23
2022-09-21T04:37:27.464Z,10.29
2022-09-21T04:40:59.486Z,10.35
2022-09-21T04:44:26.134Z,10.40
2022-09-21T04:47:53.213Z,10.44
2022-09-21T04:51:22.866Z,10.49
2022-09-21T04:54:51.181Z,10.55
2022-09-21T04:58:24.268Z,10.60
2022-09-21T05:01:52.409Z,10.62
2022-09-21T05:05:19.551Z,10.64
2022-09-21T05:09:04.490Z,10.65
2022-09-21T05:12:31.442Z,10.66
2022-09-21T05:15:59.305Z,10.67
2022-09-21T05:19:27.319Z,10.70
2022-09-21T05:22:54.403Z,10.74
2022-09-21T05:26:21.720Z,10.79
2022-09-21T05:29:52.958Z,10.85
2022-09-21T05:33:23.427Z,10.91
2022-09-21T05:36:59.195Z,10.98
2022-09-21T05:40:27.429Z,11.09
2022-09-21T05:43:55.938Z,11.18
2022-09-21T05:47:40.989Z,11.25
2022-09-21T05:51:18.899Z,11.36
2022-09-21T05:54:59.910Z,11.46
2022-09-21T05:58:38.228Z,11.55
2022-09-21T06:02:16.392Z,11.64
2022-09-21T06:05:47.787Z,11.70
2022-09-21T06:09:24.486Z,11.74
2022-09-21T06:12:51.506Z,11.75
2022-09-21T06:16:18.724Z,11.75
2022-09-21T06:19:46.147Z,11.75
2022-09-21T06:23:15.180Z,11.74
2022-09-21T06:26:43.306Z,11.71
2022-09-21T06:30:11.371Z,11.68
2022-09-21T06:33:39.200Z,11.69
2022-09-21T06:37:05.736Z,11.72
2022-09-21T06:40:33.652Z,11.78
2022-09-21T06:44:02.739Z,11.87
2022-09-21T06:47:29.445Z,11.93
2022-09-21T06:51:00.907Z,11.98
2022-09-21T06:54:27.344Z,12.07
2022-09-21T06:57:54.889Z,12.16
2022-09-21T07:01:23.805Z,12.24
2022-09-21T07:04:51.179Z,12.31
2022-09-21T07:12:08.238Z,12.48
2022-09-21T07:15:35.541Z,12.57
2022-09-21T07:19:10.742Z,12.63
2022-09-21T07:22:38.218Z,12.65
2022-09-21T07:26:07.721Z,12.71
2022-09-21T07:29:35.121Z,12.76
2022-09-21T07:33:02.120Z,12.82
2022-09-21T07:36:29.017Z,12.92
2022-09-21T07:39:56.645Z,13.03
2022-09-21T07:43:23.185Z,13.10
2022-09-21T07:46:51.511Z,13.15
2022-09-21T07:50:22.726Z,13.19
2022-09-21T07:53:49.875Z,13.26
2022-09-21T07:57:34.375Z,13.31
2022-09-21T08:01:01.124Z,13.35
2022-09-21T08:04:28.733Z,13.36
2022-09-21T08:08:00.561Z,13.43
2022-09-21T08:11:28.641Z,13.58
2022-09-21T08:14:55.667Z,13.78
2022-09-21T08:18:23.425Z,13.95
2022-09-21T08:21:57.203Z,14.06
2022-09-21T08:25:25.315Z,14.14
2022-09-21T08:28:56.881Z,14.20
2022-09-21T08:32:49.232Z,14.26
2022-09-21T08:36:11.751Z,14.29
2022-09-21T08:39:39.033Z,14.29
2022-09-21T08:43:11.815Z,14.36
2022-09-21T08:46:42.721Z,14.46
2022-09-21T08:50:23.743Z,14.50
2022-09-21T08:53:53.196Z,14.49
2022-09-21T08:57:24.601Z,14.45
2022-09-21T09:00:55.113Z,14.47
2022-09-21T09:04:35.765Z,14.51
2022-09-21T09:08:20.159Z,14.58
2022-09-21T09:12:10.070Z,14.65
2022-09-21T09:15:58.849Z,14.74
2022-09-21T09:19:35.076Z,14.82
2022-09-21T09:23:14.348Z,14.85
2022-09-21T09:26:47.721Z,14.83
2022-09-21T09:30:19.908Z,14.86
2022-09-21T09:33:55.504Z,14.90
2022-09-21T09:37:32.483Z,14.99
2022-09-21T09:41:27.820Z,15.12
2022-09-21T09:45:27.972Z,15.24
2022-09-21T09:49:17.536Z,15.41
2022-09-21T09:52:47.956Z,15.45
2022-09-21T09:56:16.688Z,15.25
2022-09-21T09:59:54.254Z,15.06
2022-09-21T10:03:24.900Z,14.82
2022-09-21T10:06:54.217Z,14.68
2022-09-21T10:10:36.824Z,14.52
2022-09-21T10:14:11.857Z,14.33
2022-09-21T10:17:39.891Z,14.22
2022-09-21T10:21:10.996Z,14.19
2022-09-21T10:24:40.919Z,14.17
2022-09-21T10:28:08.330Z,14.16
2022-09-21T10:31:37.204Z,14.17
2022-09-21T10:35:22.842Z,14.20
2022-09-21T10:38:49.767Z,14.29
2022-09-21T10:42:20.027Z,14.46
2022-09-21T10:45:57.530Z,14.56
2022-09-21T10:49:28.242Z,14.63
2022-09-21T10:53:01.257Z,14.79
2022-09-21T10:56:29.245Z,15.09
2022-09-21T10:59:57.533Z,15.28
2022-09-21T11:03:57.696Z,15.50
2022-09-21T11:07:32.509Z,15.81
2022-09-21T11:11:10.255Z,15.99
2022-09-21T11:14:49.698Z,16.09
2022-09-21T11:18:38.160Z,16.17
2022-09-21T11:22:10.857Z,16.21
2022-09-21T11:25:48.147Z,16.30
2022-09-21T11:29:20.513Z,16.41
2022-09-21T11:33:11.353Z,16.36
2022-09-21T11:36:49.911Z,16.22
2022-09-21T11:40:33.234Z,16.12
2022-09-21T11:44:21.256Z,16.02
2022-09-21T11:48:03.535Z,16.04
2022-09-21T11:51:48.674Z,16.08
2022-09-21T11:55:36.398Z,16.42
2022-09-21T11:59:21.399Z,16.72
2022-09-21T12:03:29.625Z,17.02
2022-09-21T12:07:18.340Z,17.09
2022-09-21T12:11:02.906Z,17.33
2022-09-21T12:14:42.413Z,17.46
2022-09-21T12:18:21.744Z,17.72
2022-09-21T12:22:00.173Z,17.94
2022-09-21T12:25:33.046Z,18.32
2022-09-21T12:29:15.285Z,18.42
2022-09-21T12:32:56.768Z,18.23
2022-09-21T12:36:31.914Z,17.98
2022-09-21T12:40:07.136Z,17.74
2022-09-21T12:43:46.486Z,17.50
2022-09-21T12:47:18.659Z,17.40
2022-09-21T12:51:10.810Z,17.61
2022-09-21T12:54:48.210Z,18.01
2022-09-21T12:58:37.463Z,18.02
2022-09-21T13:02:18.099Z,17.80
2022-09-21T13:06:06.931Z,17.49
2022-09-21T13:09:44.113Z,17.17
2022-09-21T13:13:20.997Z,16.84
2022-09-21T13:17:08.596Z,16.63
2022-09-21T13:20:43.838Z,16.70
2022-09-21T13:24:34.562Z,16.98
2022-09-21T13:28:19.978Z,17.43
2022-09-21T13:32:00.252Z,17.90
2022-09-21T13:35:52.937Z,18.28
2022-09-21T13:39:21.998Z,18.20
2022-09-21T13:42:50.127Z,18.02
2022-09-21T13:46:47.498Z,17.77
2022-09-21T13:50:23.445Z,17.44
2022-09-21T13:53:57.279Z,17.19
2022-09-21T13:57:32.526Z,16.90
2022-09-21T14:01:03.214Z,16.83
2022-09-21T14:04:37.093Z,17.12
2022-09-21T14:08:06.896Z,17.45
2022-09-21T14:11:37.737Z,17.73
2022-09-21T14:15:41.764Z,17.96
2022-09-21T14:19:45.427Z,18.21
2022-09-21T14:23:31.506Z,18.48
2022-09-21T14:27:15.041Z,18.32
2022-09-21T14:30:41.974Z,18.02
2022-09-21T14:34:18.099Z,17.77
2022-09-21T14:37:52.445Z,17.55
2022-09-21T14:41:27.385Z,17.29
2022-09-21T14:44:54.564Z,17.03
2022-09-21T14:48:31.994Z,16.84
2022-09-21T14:52:22.503Z,16.72
2022-09-21T14:56:30.987Z,16.63
2022-09-21T15:00:21.391Z,16.55
2022-09-21T15:04:05.507Z,16.46
2022-09-21T15:08:06.473Z,16.38
2022-09-21T15:11:47.346Z,16.28
2022-09-21T15:15:37.292Z,16.18
2022-09-21T15:19:28.746Z,16.05
2022-09-21T15:23:02.389Z,15.91
2022-09-21T15:26:40.332Z,15.80
2022-09-21T15:30:25.725Z,15.69
2022-09-21T15:33:56.397Z,15.58
2022-09-21T15:37:31.133Z,15.45
2022-09-21T15:41:11.592Z,15.36
2022-09-21T15:44:49.068Z,15.25
2022-09-21T15:48:20.686Z,15.14
2022-09-21T15:51:55.510Z,15.04
2022-09-21T15:55:25.484Z,14.95
2022-09-21T15:58:57.030Z,14.81
2022-09-21T16:02:28.332Z,14.67
2022-09-21T16:06:02.754Z,14.56
2022-09-21T16:09:42.155Z,14.49
2022-09-21T16:13:34.553Z,14.40
2022-09-21T16:17:25.095Z,14.31
2022-09-21T16:21:00.142Z,14.23
2022-09-21T16:24:43.824Z,14.17
2022-09-21T16:28:36.561Z,14.12
2022-09-21T16:32:29.273Z,14.05
2022-09-21T16:35:57.068Z,13.97
2022-09-21T16:39:24.081Z,13.93
2022-09-21T16:42:51.266Z,13.90
2022-09-21T16:46:19.079Z,13.86
2022-09-21T16:49:46.480Z,13.83
2022-09-21T16:53:13.423Z,13.80
2022-09-21T16:56:40.379Z,13.73
2022-09-21T17:00:14.072Z,13.60
2022-09-21T17:03:41.577Z,13.49
2022-09-21T17:07:14.729Z,13.40
2022-09-21T17:10:45.572Z,13.29
2022-09-21T17:14:16.439Z,13.16
2022-09-21T17:17:46.711Z,13.06
2022-09-21T17:21:15.368Z,12.92
2022-09-21T17:24:51.436Z,12.79
2022-09-21T17:28:26.392Z,12.69
2022-09-21T17:31:56.509Z,12.60
2022-09-21T17:35:31.924Z,12.50
2022-09-21T17:38:59.138Z,12.44
2022-09-21T17:42:28.651Z,12.38
2022-09-21T17:46:05.345Z,12.35
2022-09-21T17:49:39.520Z,12.33
2022-09-21T17:53:28.134Z,12.32
2022-09-21T17:57:00.536Z,12.31
2022-09-21T18:00:30.996Z,12.31
2022-09-21T18:04:02.973Z,12.27
2022-09-21T18:07:35.476Z,12.22
2022-09-21T18:11:15.647Z,12.13
2022-09-21T18:14:57.364Z,12.06
2022-09-21T18:18:38.374Z,11.96
2022-09-21T18:22:16.124Z,11.88
2022-09-21T18:25:50.403Z,11.79
2022-09-21T18:29:46.021Z,11.71
2022-09-21T18:33:21.496Z,11.62
2022-09-21T18:37:01.029Z,11.54
2022-09-21T18:40:35.022Z,11.46
2022-09-21T18:44:18.679Z,11.38
2022-09-21T18:48:05.233Z,11.31
2022-09-21T18:51:40.645Z,11.28
2022-09-21T18:55:20.188Z,11.31
2022-09-21T18:58:51.311Z,11.31
2022-09-21T19:02:29.602Z,11.34
2022-09-21T19:06:22.771Z,11.38
2022-09-21T19:10:00.271Z,11.43
2022-09-21T19:13:43.334Z,11.46
2022-09-21T19:17:26.800Z,11.48
2022-09-21T19:21:11.659Z,11.48
2022-09-21T19:24:48.312Z,11.49
2022-09-21T19:28:36.750Z,11.46
2022-09-21T19:32:03.938Z,11.43
2022-09-21T19:35:37.335Z,11.38
2022-09-21T19:39:06.874Z,11.37
2022-09-21T19:42:42.474Z,11.34
2022-09-21T19:46:22.174Z,11.30
2022-09-21T19:49:55.344Z,11.25
2022-09-21T19:53:42.754Z,11.19
2022-09-21T19:57:35.540Z,11.17
2022-09-21T20:01:07.216Z,11.15
2022-09-21T20:04:42.857Z,11.11
2022-09-21T20:08:19.362Z,11.09
2022-09-21T20:11:55.126Z,11.08
2022-09-21T20:15:29.983Z,11.07
2022-09-21T20:19:07.354Z,11.04
2022-09-21T20:22:37.848Z,10.98
2022-09-21T20:26:08.701Z,10.91
2022-09-21T20:29:37.498Z,10.84
2022-09-21T20:33:08.290Z,10.73
2022-09-21T20:36:35.026Z,10.63
2022-09-21T20:40:01.984Z,10.52
2022-09-21T20:43:32.866Z,10.39
2022-09-21T20:47:00.709Z,10.29
2022-09-21T20:50:30.570Z,10.20
2022-09-21T20:53:58.482Z,10.12
2022-09-21T20:57:28.169Z,10.06
2022-09-21T21:00:59.008Z,10.03
2022-09-21T21:04:26.766Z,10.00
2022-09-21T21:07:54.285Z,9.97
2022-09-21T21:11:22.433Z,9.95
2022-09-21T21:14:51.013Z,9.95
2022-09-21T21:18:18.132Z,9.93
2022-09-21T21:21:45.016Z,9.92
2022-09-21T21:25:13.207Z,9.89
2022-09-21T21:28:40.050Z,9.84
2022-09-21T21:32:07.638Z,9.80
2022-09-21T21:35:34.227Z,9.71
2022-09-21T21:39:01.126Z,9.65
2022-09-21T21:42:29.645Z,9.57
2022-09-21T21:46:02.162Z,9.48
2022-09-21T21:49:30.106Z,9.39
2022-09-21T21:53:00.374Z,9.35
2022-09-21T21:56:27.325Z,9.30
2022-09-21T21:59:54.038Z,9.26
2022-09-21T22:03:20.839Z,9.26
2022-09-21T22:06:49.746Z,9.25
2022-09-21T22:10:16.733Z,9.25
2022-09-21T22:13:43.754Z,9.26
2022-09-21T22:17:10.395Z,9.26
2022-09-21T22:20:40.964Z,9.24
2022-09-21T22:24:08.916Z,9.23
2022-09-21T22:27:35.663Z,9.21
2022-09-21T22:31:03.748Z,9.17
2022-09-21T22:34:30.892Z,9.12
2022-09-21T22:37:58.352Z,9.05
2022-09-21T22:41:27.020Z,8.98
2022-09-21T22:44:53.767Z,8.90
2022-09-21T22:48:21.908Z,8.83
2022-09-21T22:51:50.009Z,8.74
2022-09-21T22:55:17.029Z,8.69
2022-09-21T22:58:45.301Z,8.64
2022-09-21T23:02:12.519Z,8.59
2022-09-21T23:05:38.886Z,8.57
2022-09-21T23:09:09.339Z,8.57
2022-09-21T23:12:37.420Z,8.57
2022-09-21T23:16:06.843Z,8.57
2022-09-21T23:19:33.583Z,8.58
2022-09-21T23:23:00.321Z,8.59
2022-09-21T23:26:27.889Z,8.61
2022-09-21T23:29:55.243Z,8.62
2022-09-21T23:33:22.371Z,8.59
2022-09-21T23:36:49.410Z,8.56
2022-09-21T23:40:16.366Z,8.52
2022-09-21T23:43:45.178Z,8.45
2022-09-21T23:47:12.404Z,8.38
2022-09-21T23:50:39.105Z,8.34
2022-09-21T23:54:07.010Z,8.30
2022-09-21T23:57:33.767Z,8.26
